DK-0008 weather

Holstebro Glider Field
Holstebro, Central Jutland, Denmark

Public forecast

Using degrees Celsius for public forecast. Weather courtesy of forecast.io.

Closest aviation weather report (METAR) to Holstebro Glider Field

Closest report is Karup Airport, 17.9 nm (33.2 km) E. Retrieved 2019/12/10 21:25 UTC (0 seconds ago):

EKKA 102125Z AUTO 18018G32KT 9999 -SHRA BKN011/// 04/02 Q1002

Closest aviation forecast (TAF) to Holstebro Glider Field

Closest forecast is Karup Airport, 17.9 nm (33.2 km) E. Retrieved 2019/12/10 21:30 UTC (0 seconds ago):

TAF EKKA 102010Z 1021/1121 18022G38KT 9999 BKN100 BECMG 1021/1024 6000 -RADZ BKN014 TEMPO 1100/1105 3000 RA BKN008 BECMG 1103/1105 22010KT BECMG 1105/1108 9999 NSW SCT030